createdAt,value
2022-08-14T00:01:03.991Z,10.57
2022-08-14T00:03:40.411Z,7.28
2022-08-14T00:06:13.879Z,6.40
2022-08-14T00:08:52.066Z,7.32
2022-08-14T00:11:19.601Z,7.13
2022-08-14T00:13:52.507Z,6.68
2022-08-14T00:16:41.120Z,8.93
2022-08-14T00:19:19.277Z,7.82
2022-08-14T00:21:47.197Z,5.45
2022-08-14T00:24:13.856Z,5.55
2022-08-14T00:26:55.580Z,8.10
2022-08-14T00:29:25.506Z,6.80
2022-08-14T00:31:53.883Z,5.82
2022-08-14T00:34:36.321Z,7.07
2022-08-14T00:37:09.800Z,7.20
2022-08-14T00:39:37.252Z,5.68
2022-08-14T00:42:04.918Z,6.45
2022-08-14T00:44:33.358Z,5.60
2022-08-14T00:47:06.086Z,6.20
2022-08-14T00:49:42.851Z,4.75
2022-08-14T00:52:18.309Z,9.50
2022-08-14T00:54:46.753Z,4.70
2022-08-14T00:57:13.857Z,5.10
2022-08-14T00:59:41.342Z,5.32
2022-08-14T01:02:09.334Z,8.88
2022-08-14T01:04:51.738Z,6.20
2022-08-14T01:07:22.653Z,7.18
2022-08-14T01:09:52.428Z,7.30
2022-08-14T01:12:26.959Z,5.20
2022-08-14T01:14:58.550Z,5.05
2022-08-14T01:17:46.015Z,5.85
2022-08-14T01:20:35.843Z,6.00
2022-08-14T01:23:15.773Z,8.13
2022-08-14T01:25:45.961Z,5.72
2022-08-14T01:28:46.601Z,6.32
2022-08-14T01:30:59.952Z,8.25
2022-08-14T01:33:30.198Z,8.20
2022-08-14T01:36:05.658Z,7.10
2022-08-14T01:38:37.105Z,5.68
2022-08-14T01:43:56.036Z,6.22
2022-08-14T01:46:25.357Z,5.82
2022-08-14T01:49:01.458Z,6.18
2022-08-14T01:51:28.825Z,7.88
2022-08-14T01:54:00.756Z,8.45
2022-08-14T01:56:49.597Z,5.65
2022-08-14T01:59:37.617Z,5.10
2022-08-14T02:02:14.762Z,5.57
2022-08-14T02:04:55.962Z,5.22
2022-08-14T02:07:34.653Z,5.45
2022-08-14T02:10:13.279Z,6.18
2022-08-14T02:12:42.549Z,7.57
2022-08-14T02:15:10.688Z,6.15
2022-08-14T02:17:37.546Z,9.27
2022-08-14T02:20:05.643Z,5.88
2022-08-14T02:22:33.079Z,7.38
2022-08-14T02:25:01.212Z,6.85
2022-08-14T02:28:24.233Z,9.02
2022-08-14T02:30:15.972Z,5.63
2022-08-14T02:32:43.405Z,5.43
2022-08-14T02:35:18.699Z,7.43
2022-08-14T02:37:49.149Z,5.07
2022-08-14T02:40:20.902Z,5.60
2022-08-14T02:43:00.046Z,6.78
2022-08-14T02:45:38.641Z,4.07
2022-08-14T02:49:02.843Z,5.80
2022-08-14T02:51:00.493Z,6.15
2022-08-14T02:53:29.282Z,4.50
2022-08-14T02:55:56.652Z,4.82
2022-08-14T02:58:31.096Z,5.55
2022-08-14T03:00:59.228Z,5.55
2022-08-14T03:03:26.438Z,6.60
2022-08-14T03:05:54.346Z,6.68
2022-08-14T03:08:22.411Z,5.78
2022-08-14T03:10:50.275Z,4.97
2022-08-14T03:13:21.249Z,5.85
2022-08-14T03:15:55.796Z,4.85
2022-08-14T03:18:30.767Z,6.22
2022-08-14T03:21:05.159Z,4.55
2022-08-14T03:23:37.734Z,7.13
2022-08-14T03:26:18.282Z,5.60
2022-08-14T03:28:56.648Z,5.38
2022-08-14T03:31:29.364Z,6.68
2022-08-14T03:34:00.078Z,8.70
2022-08-14T03:37:50.921Z,7.03
2022-08-14T03:39:22.219Z,5.82
2022-08-14T03:41:56.343Z,6.32
2022-08-14T03:45:18.685Z,8.50
2022-08-14T03:47:15.355Z,4.30
2022-08-14T03:49:44.724Z,5.43
2022-08-14T03:52:37.763Z,5.22
2022-08-14T03:55:00.856Z,4.97
2022-08-14T03:57:32.356Z,7.00
2022-08-14T04:00:04.036Z,6.63
2022-08-14T04:02:33.060Z,7.20
2022-08-14T04:05:12.291Z,6.53
2022-08-14T04:08:08.506Z,6.28
2022-08-14T04:10:32.101Z,7.15
2022-08-14T04:12:59.998Z,6.60
2022-08-14T04:15:30.547Z,6.57
2022-08-14T04:17:58.909Z,8.48
2022-08-14T04:20:27.158Z,8.18
2022-08-14T04:22:55.576Z,8.55
2022-08-14T04:25:22.463Z,6.88
2022-08-14T04:28:02.445Z,7.80
2022-08-14T04:30:33.045Z,8.45
2022-08-14T04:33:10.699Z,12.70
2022-08-14T04:35:55.254Z,7.45
2022-08-14T04:38:42.598Z,10.13
2022-08-14T04:41:30.232Z,8.57
2022-08-14T04:43:57.691Z,11.05
2022-08-14T04:46:54.761Z,10.35
2022-08-14T04:49:11.629Z,9.65
2022-08-14T04:51:53.539Z,8.52
2022-08-14T04:54:24.626Z,8.93
2022-08-14T04:56:51.218Z,8.68
2022-08-14T04:59:22.063Z,8.68
2022-08-14T05:01:52.852Z,14.60
2022-08-14T05:04:21.741Z,8.57
2022-08-14T05:06:53.750Z,10.20
2022-08-14T05:09:22.199Z,8.90
2022-08-14T05:11:50.394Z,9.18
2022-08-14T05:14:45.465Z,10.10
2022-08-14T05:17:05.232Z,7.70
2022-08-14T05:19:33.726Z,10.85
2022-08-14T05:22:17.034Z,9.85
2022-08-14T05:24:50.579Z,8.07
2022-08-14T05:27:20.042Z,9.23
2022-08-14T05:29:50.294Z,9.55
2022-08-14T05:32:17.035Z,8.23
2022-08-14T05:34:45.781Z,10.10
2022-08-14T05:37:13.042Z,7.43
2022-08-14T05:39:43.002Z,8.95
2022-08-14T05:42:21.723Z,9.98
2022-08-14T05:44:54.161Z,7.80
2022-08-14T05:47:22.017Z,9.43
2022-08-14T05:49:48.545Z,8.68
2022-08-14T05:52:17.959Z,10.05
2022-08-14T05:54:44.873Z,9.77
2022-08-14T05:57:11.436Z,8.98
2022-08-14T05:59:39.582Z,8.00
2022-08-14T06:02:10.674Z,9.73
2022-08-14T06:04:38.858Z,8.95
2022-08-14T06:07:06.379Z,8.82
2022-08-14T06:09:36.059Z,8.20
2022-08-14T06:12:09.145Z,8.75
2022-08-14T06:14:36.920Z,10.40
2022-08-14T06:17:04.560Z,10.75
2022-08-14T06:19:31.441Z,9.05
2022-08-14T06:21:59.006Z,11.27
2022-08-14T06:24:26.389Z,7.57
2022-08-14T06:26:56.642Z,7.38
2022-08-14T06:29:23.832Z,8.95
2022-08-14T06:31:54.607Z,7.88
2022-08-14T06:35:03.395Z,10.13
2022-08-14T06:37:13.478Z,9.10
2022-08-14T06:39:44.279Z,11.68
2022-08-14T06:42:32.696Z,10.32
2022-08-14T06:44:57.957Z,6.70
2022-08-14T06:47:25.018Z,7.53
2022-08-14T06:49:57.660Z,7.45
2022-08-14T06:52:24.969Z,8.75
2022-08-14T06:54:51.554Z,10.35
2022-08-14T06:57:18.626Z,7.30
2022-08-14T06:59:48.061Z,11.30
2022-08-14T07:02:52.026Z,6.90
2022-08-14T07:05:39.707Z,9.32
2022-08-14T07:08:28.737Z,8.60
2022-08-14T07:11:00.174Z,8.32
2022-08-14T07:13:28.381Z,7.85
2022-08-14T07:15:58.542Z,15.70
2022-08-14T07:18:30.946Z,9.30
2022-08-14T07:21:00.556Z,9.05
2022-08-14T07:23:27.642Z,6.82
2022-08-14T07:25:59.181Z,10.98
2022-08-14T07:28:30.002Z,6.53
2022-08-14T07:31:04.280Z,7.97
2022-08-14T07:33:36.553Z,7.30
2022-08-14T07:36:26.566Z,8.13
2022-08-14T07:38:53.472Z,9.90
2022-08-14T07:41:20.005Z,8.13
2022-08-14T07:43:47.460Z,8.60
2022-08-14T07:46:21.340Z,6.57
2022-08-14T07:48:56.839Z,8.15
2022-08-14T07:51:23.472Z,7.05
2022-08-14T07:53:50.274Z,6.88
2022-08-14T07:56:47.460Z,6.53
2022-08-14T07:59:11.583Z,9.90
2022-08-14T08:01:51.210Z,7.45
2022-08-14T08:04:24.972Z,10.52
2022-08-14T08:06:52.599Z,9.32
2022-08-14T08:09:31.988Z,7.47
2022-08-14T08:12:04.893Z,9.73
2022-08-14T08:14:55.452Z,9.77
2022-08-14T08:17:25.901Z,7.45
2022-08-14T08:19:52.473Z,8.40
2022-08-14T08:22:22.283Z,8.70
2022-08-14T08:24:54.826Z,6.00
2022-08-14T08:27:24.517Z,8.80
2022-08-14T08:29:51.821Z,6.70
2022-08-14T08:32:18.863Z,7.72
2022-08-14T08:34:48.453Z,6.88
2022-08-14T08:37:15.780Z,7.55
2022-08-14T08:40:01.998Z,6.85
2022-08-14T08:42:31.417Z,6.25
2022-08-14T08:45:06.541Z,8.45
2022-08-14T08:47:40.325Z,7.93
2022-08-14T08:50:23.465Z,10.15
2022-08-14T08:53:02.792Z,10.10
2022-08-14T08:55:43.697Z,7.60
2022-08-14T08:58:20.318Z,5.82
2022-08-14T09:00:54.755Z,8.50
2022-08-14T09:06:01.498Z,6.75
2022-08-14T09:08:33.040Z,6.40
2022-08-14T09:11:18.890Z,8.60
2022-08-14T09:13:49.986Z,7.68
2022-08-14T09:16:19.960Z,6.97
2022-08-14T09:18:46.927Z,5.38
2022-08-14T09:21:16.132Z,6.65
2022-08-14T09:24:26.954Z,5.75
2022-08-14T09:26:30.017Z,6.35
2022-08-14T09:28:59.050Z,5.80
2022-08-14T09:31:27.384Z,5.60
2022-08-14T09:34:58.768Z,10.65
2022-08-14T09:37:34.722Z,5.45
2022-08-14T09:40:20.631Z,6.40
2022-08-14T09:43:14.363Z,5.93
2022-08-14T09:45:53.041Z,5.50
2022-08-14T09:48:27.560Z,7.03
2022-08-14T09:50:57.792Z,6.05
2022-08-14T09:54:19.524Z,4.70
2022-08-14T09:56:31.015Z,7.45
2022-08-14T09:59:00.334Z,7.43
2022-08-14T10:04:13.509Z,7.15
2022-08-14T10:06:54.395Z,6.38
2022-08-14T10:09:21.259Z,7.35
2022-08-14T10:11:58.713Z,4.80
2022-08-14T10:14:35.798Z,4.38
2022-08-14T10:17:06.314Z,5.38
2022-08-14T10:19:36.482Z,4.65
2022-08-14T10:23:14.782Z,7.30
2022-08-14T10:24:57.352Z,5.85
2022-08-14T10:27:27.116Z,6.03
2022-08-14T10:30:04.500Z,6.72
2022-08-14T10:32:36.605Z,5.80
2022-08-14T10:35:14.312Z,4.43
2022-08-14T10:37:46.700Z,5.15
2022-08-14T10:40:37.658Z,9.68
2022-08-14T10:43:25.315Z,4.15
2022-08-14T10:46:04.196Z,4.78
2022-08-14T10:48:55.035Z,6.60
2022-08-14T10:51:30.300Z,4.10
2022-08-14T10:54:35.509Z,4.63
2022-08-14T10:56:57.475Z,6.85
2022-08-14T10:59:30.631Z,6.32
2022-08-14T11:01:59.815Z,4.63
2022-08-14T11:04:30.351Z,6.90
2022-08-14T11:06:57.935Z,5.18
2022-08-14T11:09:31.402Z,3.55
2022-08-14T11:12:34.391Z,3.08
2022-08-14T11:15:02.184Z,5.60
2022-08-14T11:17:32.740Z,4.97
2022-08-14T11:20:00.988Z,5.57
2022-08-14T11:22:55.811Z,5.10
2022-08-14T11:25:20.410Z,5.18
2022-08-14T11:27:49.190Z,4.45
2022-08-14T11:30:50.848Z,4.53
2022-08-14T11:33:09.360Z,5.65
2022-08-14T11:35:44.178Z,5.53
2022-08-14T11:38:17.251Z,4.32
2022-08-14T11:40:46.904Z,5.45
2022-08-14T11:45:47.759Z,5.63
2022-08-14T11:49:02.970Z,3.92
2022-08-14T11:51:17.776Z,3.88
2022-08-14T11:53:51.940Z,3.80
2022-08-14T11:56:18.759Z,3.75
2022-08-14T11:58:54.280Z,4.85
2022-08-14T12:01:30.967Z,4.40
2022-08-14T12:04:32.085Z,10.85
2022-08-14T12:06:57.974Z,4.13
2022-08-14T12:09:33.369Z,4.47
2022-08-14T12:12:01.831Z,3.80
2022-08-14T12:14:30.461Z,4.28
2022-08-14T12:17:11.946Z,4.32
2022-08-14T12:19:56.793Z,3.88
2022-08-14T12:22:42.323Z,5.90
2022-08-14T12:25:14.655Z,4.18
2022-08-14T12:27:53.639Z,3.60
2022-08-14T12:30:37.646Z,5.65
2022-08-14T12:33:19.590Z,5.60
2022-08-14T12:35:46.161Z,4.38
2022-08-14T12:38:19.393Z,6.00
2022-08-14T12:40:53.767Z,5.45
2022-08-14T12:43:22.613Z,5.15
2022-08-14T12:45:52.040Z,7.95
2022-08-14T12:48:21.279Z,5.03
2022-08-14T12:50:58.384Z,4.43
2022-08-14T12:53:36.347Z,6.88
2022-08-14T12:56:21.431Z,4.50
2022-08-14T12:58:58.290Z,4.47
2022-08-14T13:02:00.178Z,3.42
2022-08-14T13:04:21.787Z,6.07
2022-08-14T13:06:51.783Z,5.35
2022-08-14T13:09:19.531Z,2.97
2022-08-14T13:11:58.951Z,4.43
2022-08-14T13:14:43.869Z,4.95
2022-08-14T13:17:11.687Z,5.15
2022-08-14T13:19:40.578Z,3.10
2022-08-14T13:22:10.153Z,3.00
2022-08-14T13:24:47.892Z,4.45
2022-08-14T13:27:14.929Z,3.03
2022-08-14T13:29:47.217Z,5.00
2022-08-14T13:32:15.065Z,5.68
2022-08-14T13:34:45.322Z,3.10
2022-08-14T13:37:14.797Z,3.55
2022-08-14T13:39:47.584Z,3.00
2022-08-14T13:42:30.740Z,4.07
2022-08-14T13:45:01.003Z,3.17
2022-08-14T13:47:30.232Z,4.88
2022-08-14T13:50:00.538Z,3.67
2022-08-14T13:52:52.485Z,3.92
2022-08-14T13:55:25.581Z,4.00
2022-08-14T13:58:04.135Z,4.80
2022-08-14T14:00:51.883Z,3.35
2022-08-14T14:03:22.561Z,3.78
2022-08-14T14:05:54.986Z,4.00
2022-08-14T14:08:45.751Z,3.85
2022-08-14T14:11:16.491Z,3.05
2022-08-14T14:13:46.412Z,3.50
2022-08-14T14:16:22.033Z,3.20
2022-08-14T14:18:56.379Z,2.97
2022-08-14T14:21:30.580Z,10.13
2022-08-14T14:23:59.422Z,20.55
2022-08-14T14:26:33.200Z,9.93
2022-08-14T14:29:03.878Z,5.95
2022-08-14T14:31:31.161Z,3.60
2022-08-14T14:34:07.280Z,5.72
2022-08-14T14:36:50.202Z,3.72
2022-08-14T14:39:25.338Z,4.35
2022-08-14T14:41:57.514Z,4.13
2022-08-14T14:44:26.818Z,4.32
2022-08-14T14:46:53.723Z,6.80
2022-08-14T14:49:22.231Z,9.70
2022-08-14T14:51:58.701Z,11.27
2022-08-14T14:54:31.639Z,18.27
2022-08-14T14:57:04.925Z,21.38
2022-08-14T14:59:37.296Z,9.95
2022-08-14T15:02:08.127Z,9.10
2022-08-14T15:04:37.918Z,19.30
2022-08-14T15:07:06.158Z,10.38
2022-08-14T15:09:34.227Z,13.27
2022-08-14T15:12:05.537Z,9.18
2022-08-14T15:14:55.276Z,30.33
2022-08-14T15:17:24.273Z,5.90
2022-08-14T15:19:56.721Z,21.52
2022-08-14T15:22:25.319Z,25.23
2022-08-14T15:24:51.977Z,7.28
2022-08-14T15:27:26.192Z,9.65
2022-08-14T15:29:53.328Z,14.85
2022-08-14T15:32:22.972Z,3.67
2022-08-14T15:34:52.896Z,16.40
2022-08-14T15:37:22.980Z,41.13
2022-08-14T15:39:52.724Z,20.05
2022-08-14T15:42:22.990Z,23.48
2022-08-14T15:44:57.860Z,11.60
2022-08-14T15:47:30.070Z,9.52
2022-08-14T15:50:00.811Z,23.40
2022-08-14T15:52:35.379Z,24.00
2022-08-14T15:55:14.691Z,28.48
2022-08-14T15:58:01.646Z,30.95
2022-08-14T16:00:49.954Z,13.63
2022-08-14T16:03:27.967Z,22.73
2022-08-14T16:06:10.728Z,23.98
2022-08-14T16:08:38.297Z,20.08
2022-08-14T16:11:07.184Z,22.00
2022-08-14T16:13:39.192Z,9.65
2022-08-14T16:16:34.990Z,11.23
2022-08-14T16:19:17.463Z,4.20
2022-08-14T16:24:33.365Z,8.73
2022-08-14T16:27:01.420Z,10.68
2022-08-14T16:29:30.550Z,15.55
2022-08-14T16:32:00.201Z,18.40
2022-08-14T16:34:44.975Z,16.88
2022-08-14T16:37:16.520Z,20.70
2022-08-14T16:39:43.908Z,31.80
2022-08-14T16:40:24.149Z,15.15
2022-08-14T16:42:39.533Z,13.85
2022-08-14T16:44:59.857Z,23.48
2022-08-14T16:47:35.161Z,20.15
2022-08-14T16:50:08.709Z,13.02
2022-08-14T16:52:44.097Z,23.10
2022-08-14T16:55:13.800Z,20.58
2022-08-14T16:57:54.896Z,24.73
2022-08-14T17:00:43.482Z,13.57
2022-08-14T17:03:12.557Z,18.77
2022-08-14T17:05:43.106Z,20.17
2022-08-14T17:08:32.583Z,15.48
2022-08-14T17:10:56.658Z,15.40
2022-08-14T17:13:58.794Z,5.55
2022-08-14T17:16:24.260Z,21.77
2022-08-14T17:19:03.687Z,13.15
2022-08-14T17:21:38.449Z,18.80
2022-08-14T17:24:57.483Z,23.52
2022-08-14T17:27:04.061Z,28.55
2022-08-14T17:29:34.920Z,15.57
2022-08-14T17:32:28.004Z,37.92
2022-08-14T17:35:01.613Z,15.55
2022-08-14T17:37:55.495Z,6.72
2022-08-14T17:43:00.830Z,4.78
2022-08-14T17:45:41.228Z,7.03
2022-08-14T17:49:13.874Z,4.90
2022-08-14T17:51:15.117Z,8.60
2022-08-14T17:53:53.703Z,5.90
2022-08-14T17:56:29.004Z,5.00
2022-08-14T17:59:02.583Z,9.35
2022-08-14T18:01:35.545Z,10.15
2022-08-14T18:04:05.571Z,8.65
2022-08-14T18:06:57.887Z,3.95
2022-08-14T18:09:56.482Z,5.22
2022-08-14T18:12:31.859Z,18.25
2022-08-14T18:15:06.770Z,11.18
2022-08-14T18:17:53.064Z,10.73
2022-08-14T18:21:40.515Z,25.23
2022-08-14T18:23:13.504Z,6.28
2022-08-14T18:25:48.478Z,10.32
2022-08-14T18:28:32.208Z,5.63
2022-08-14T18:31:26.829Z,17.63
2022-08-14T18:34:12.246Z,12.77
2022-08-14T18:39:34.739Z,11.88
2022-08-14T18:42:23.468Z,7.50
2022-08-14T18:44:50.719Z,14.73
2022-08-14T18:47:20.358Z,8.55
2022-08-14T18:49:54.356Z,11.07
2022-08-14T18:52:22.632Z,5.43
2022-08-14T18:54:59.598Z,4.10
2022-08-14T18:57:27.219Z,5.30
2022-08-14T19:00:33.353Z,6.10
2022-08-14T19:03:04.766Z,4.55
2022-08-14T19:05:47.582Z,4.10
2022-08-14T19:08:17.484Z,4.07
2022-08-14T19:10:52.450Z,3.30
2022-08-14T19:13:48.720Z,4.78
2022-08-14T19:16:17.128Z,4.47
2022-08-14T19:18:53.103Z,5.13
2022-08-14T19:21:38.498Z,5.47
2022-08-14T19:24:30.346Z,5.55
2022-08-14T19:27:16.700Z,5.88
2022-08-14T19:29:47.992Z,11.05
2022-08-14T19:32:40.794Z,5.65
2022-08-14T19:35:18.206Z,6.32
2022-08-14T19:37:52.454Z,3.90
2022-08-14T19:40:41.956Z,4.43
2022-08-14T19:43:22.702Z,4.65
2022-08-14T19:46:38.104Z,3.22
2022-08-14T19:48:57.213Z,3.75
2022-08-14T19:51:24.589Z,3.58
2022-08-14T19:54:13.475Z,3.90
2022-08-14T19:56:42.920Z,5.28
2022-08-14T19:59:18.085Z,3.33
2022-08-14T20:01:48.446Z,3.40
2022-08-14T20:04:45.280Z,7.03
2022-08-14T20:07:09.263Z,5.85
2022-08-14T20:11:04.237Z,4.10
2022-08-14T20:12:36.124Z,4.65
2022-08-14T20:15:17.984Z,4.60
2022-08-14T20:17:53.687Z,3.72
2022-08-14T20:20:30.894Z,5.07
2022-08-14T20:23:11.349Z,3.80
2022-08-14T20:25:57.148Z,3.72
2022-08-14T20:28:32.760Z,5.30
2022-08-14T20:31:17.938Z,4.03
2022-08-14T20:34:24.675Z,7.18
2022-08-14T20:37:27.812Z,3.55
2022-08-14T20:39:55.822Z,4.82
2022-08-14T20:42:43.377Z,3.83
2022-08-14T20:45:23.839Z,4.00
2022-08-14T20:48:07.295Z,3.58
2022-08-14T20:50:36.405Z,4.05
2022-08-14T20:53:58.179Z,3.47
2022-08-14T20:56:28.378Z,3.97
2022-08-14T20:58:56.399Z,3.92
2022-08-14T21:01:23.180Z,5.35
2022-08-14T21:04:00.312Z,4.72
2022-08-14T21:07:23.468Z,5.72
2022-08-14T21:10:03.292Z,9.43
2022-08-14T21:12:34.337Z,6.63
2022-08-14T21:15:00.161Z,5.40
2022-08-14T21:17:27.453Z,4.28
2022-08-14T21:19:54.095Z,5.15
2022-08-14T21:22:20.720Z,3.83
2022-08-14T21:24:47.975Z,5.53
2022-08-14T21:27:21.807Z,5.30
2022-08-14T21:29:55.287Z,4.35
2022-08-14T21:32:35.085Z,5.47
2022-08-14T21:35:08.759Z,4.75
2022-08-14T21:37:43.671Z,3.90
2022-08-14T21:40:39.902Z,4.13
2022-08-14T21:43:00.797Z,4.25
2022-08-14T21:45:27.741Z,4.60
2022-08-14T21:47:56.356Z,4.95
2022-08-14T21:50:39.784Z,3.78
2022-08-14T21:53:10.593Z,5.35
2022-08-14T21:55:37.427Z,4.43
2022-08-14T21:58:52.224Z,3.83
2022-08-14T22:00:51.561Z,6.72
2022-08-14T22:03:23.511Z,3.78
2022-08-14T22:05:53.484Z,5.88
2022-08-14T22:08:22.506Z,5.45
2022-08-14T22:10:55.019Z,4.35
2022-08-14T22:13:26.394Z,4.88
2022-08-14T22:15:59.468Z,4.53
2022-08-14T22:18:26.999Z,4.22
2022-08-14T22:23:24.792Z,4.10
2022-08-14T22:25:53.559Z,5.63
2022-08-14T22:28:32.720Z,5.40
2022-08-14T22:31:02.349Z,6.95
2022-08-14T22:33:31.290Z,6.35
2022-08-14T22:36:00.423Z,6.68
2022-08-14T22:38:35.330Z,6.30
2022-08-14T22:41:26.198Z,4.97
2022-08-14T22:43:56.140Z,5.50
2022-08-14T22:46:23.636Z,5.95
2022-08-14T22:48:51.298Z,5.03
2022-08-14T22:51:21.514Z,4.97
2022-08-14T22:53:52.440Z,4.88
2022-08-14T22:56:22.216Z,5.57
2022-08-14T22:58:57.990Z,4.82
2022-08-14T23:02:03.711Z,4.57
2022-08-14T23:04:34.928Z,5.80
2022-08-14T23:07:23.124Z,10.88
2022-08-14T23:10:34.116Z,8.32
2022-08-14T23:15:23.841Z,4.95
2022-08-14T23:17:51.042Z,5.40
2022-08-14T23:20:21.445Z,4.53
2022-08-14T23:22:52.639Z,5.20
2022-08-14T23:25:57.978Z,5.38
2022-08-14T23:28:33.776Z,5.47
2022-08-14T23:31:01.519Z,6.68
2022-08-14T23:33:28.637Z,5.88
2022-08-14T23:35:59.648Z,5.28
2022-08-14T23:38:30.464Z,8.77
2022-08-14T23:41:00.753Z,7.30
2022-08-14T23:43:31.146Z,7.47
2022-08-14T23:45:58.759Z,7.60
2022-08-14T23:48:28.120Z,8.07
2022-08-14T23:50:55.468Z,6.93
2022-08-14T23:53:48.503Z,6.55
2022-08-14T23:56:32.267Z,4.80
2022-08-14T23:59:00.953Z,5.15
